Time;durP1;ratioP1;P1;durP2;ratioP2;P2;SDS_P1;SDS_P2;PMS_P1;PMS_P2;Temp;Humidity;BMP_temperature;BMP_pressure;BME280_temperature;BME280_humidity;BME280_pressure;Samples;Min_cycle;Max_cycle;Signal;HPM_P1;HPM_P2
2020/12/14 00:00:39;;;;;;;0.70;0.60;;;6.90;99.90;;;7.66;100.00;-20890.63;5016232;28;20786;-67
2020/12/14 00:03:06;;;;;;;0.70;0.60;;;6.90;99.90;;;7.79;100.00;-20894.25;5015714;28;20457;-67
2020/12/14 00:05:36;;;;;;;0.70;0.60;;;6.90;99.90;;;7.77;100.00;-20893.69;5015873;28;20431;-66
2020/12/14 00:08:03;;;;;;;0.70;0.60;;;7.00;99.90;;;7.66;100.00;-20890.78;5015109;28;20466;-67
2020/12/14 00:10:30;;;;;;;0.70;0.60;;;7.00;99.90;;;7.70;100.00;-20891.75;5015439;28;20439;-67
2020/12/14 00:13:02;;;;;;;0.70;0.67;;;6.90;99.90;;;7.62;100.00;-20889.66;5014775;28;20480;-67
2020/12/14 00:15:29;;;;;;;0.70;0.60;;;6.90;99.90;;;7.69;100.00;-20891.59;5015493;28;20762;-67
2020/12/14 00:17:56;;;;;;;0.70;0.70;;;6.80;99.90;;;7.64;100.00;-20890.22;5030587;28;20432;-66
2020/12/14 00:20:23;;;;;;;0.70;0.60;;;6.90;99.90;;;7.58;100.00;-20888.53;5015375;28;20784;-66
2020/12/14 00:22:51;;;;;;;0.70;0.60;;;6.90;99.90;;;7.70;100.00;-20891.88;5015291;28;20831;-67
2020/12/14 00:25:18;;;;;;;0.70;0.50;;;6.90;99.90;;;7.61;100.00;-20889.25;5015980;28;20434;-67
2020/12/14 00:27:45;;;;;;;0.70;0.60;;;6.90;99.90;;;7.52;100.00;-20886.88;5015147;28;20533;-67
2020/12/14 00:30:12;;;;;;;0.70;0.60;;;6.90;99.90;;;7.61;100.00;-20889.38;5015068;28;20489;-67
2020/12/14 00:32:39;;;;;;;0.70;0.60;;;6.90;99.90;;;7.57;100.00;-20888.28;5013681;28;20426;-66
2020/12/14 00:35:06;;;;;;;0.70;0.60;;;6.90;99.90;;;7.67;100.00;-20890.91;5015609;28;20863;-67
2020/12/14 00:37:33;;;;;;;0.70;0.50;;;6.90;99.90;;;7.72;100.00;-20892.28;4998880;28;20430;-66
2020/12/14 00:40:01;;;;;;;0.70;0.60;;;6.90;99.90;;;7.71;100.00;-20892.00;4995498;28;20850;-67
2020/12/14 00:42:28;;;;;;;0.70;0.60;;;6.90;99.90;;;7.69;100.00;-20891.59;4995491;28;20771;-67
2020/12/14 00:44:55;;;;;;;0.70;0.60;;;6.90;99.90;;;7.72;100.00;-20892.44;5012684;28;20443;-67
2020/12/14 00:47:22;;;;;;;0.70;0.60;;;6.90;99.90;;;7.79;100.00;-20894.25;5014667;28;20415;-66
2020/12/14 00:49:49;;;;;;;0.70;0.60;;;6.90;99.90;;;7.64;100.00;-20890.22;5014625;28;20452;-67
2020/12/14 00:52:16;;;;;;;0.70;0.60;;;6.90;99.90;;;7.87;100.00;-20896.31;5014655;28;20427;-66
2020/12/14 00:54:43;;;;;;;0.70;0.60;;;6.90;99.90;;;7.86;100.00;-20896.19;5015351;28;20428;-67
2020/12/14 00:57:11;;;;;;;0.70;0.60;;;7.00;99.90;;;7.87;100.00;-20896.31;5015174;28;20433;-66
2020/12/14 00:59:38;;;;;;;0.70;0.60;;;7.00;99.90;;;7.92;100.00;-20897.84;5014588;28;20789;-66
2020/12/14 01:02:05;;;;;;;0.70;0.60;;;7.00;99.90;;;7.84;100.00;-20895.47;5007225;28;20444;-67
2020/12/14 01:04:32;;;;;;;0.70;0.60;;;7.10;99.90;;;7.88;100.00;-20896.59;5002682;28;20983;-67
2020/12/14 01:06:59;;;;;;;0.70;0.60;;;7.00;99.90;;;7.85;100.00;-20895.75;4994932;28;20481;-66
2020/12/14 01:09:26;;;;;;;0.70;0.60;;;7.00;99.90;;;7.84;100.00;-20895.63;4997478;28;20472;-67
2020/12/14 01:11:53;;;;;;;0.70;0.60;;;7.00;99.90;;;7.90;100.00;-20897.16;4994758;28;20453;-67
2020/12/14 01:14:21;;;;;;;0.70;0.70;;;7.10;99.90;;;8.05;100.00;-20901.31;4994693;28;20425;-67
2020/12/14 01:16:48;;;;;;;0.70;0.60;;;7.20;99.90;;;7.86;100.00;-20896.03;4994799;28;20484;-67
2020/12/14 01:19:15;;;;;;;0.70;0.60;;;7.10;99.90;;;7.91;100.00;-20897.44;4997114;28;20459;-67
2020/12/14 01:21:42;;;;;;;0.70;0.70;;;7.20;99.90;;;8.01;100.00;-20900.19;4997246;28;20922;-67
2020/12/14 01:24:09;;;;;;;0.70;0.60;;;7.20;99.90;;;7.93;100.00;-20897.97;4993697;28;20522;-67
2020/12/14 01:26:35;;;;;;;0.70;0.60;;;7.20;99.90;;;7.97;100.00;-20899.09;4994430;28;20839;-67
2020/12/14 01:29:02;;;;;;;0.70;0.63;;;7.10;99.90;;;7.85;100.00;-20895.91;4998116;28;20522;-67
2020/12/14 01:31:30;;;;;;;0.70;0.50;;;7.10;99.90;;;7.86;100.00;-20896.03;5014192;28;20444;-67
2020/12/14 01:33:57;;;;;;;0.70;0.50;;;7.00;99.90;;;7.85;100.00;-20895.75;5013898;28;20450;-67
2020/12/14 01:36:24;;;;;;;1.23;0.90;;;7.10;99.90;;;7.80;100.00;-20894.50;5014258;28;20421;-67
2020/12/14 01:38:51;;;;;;;0.70;0.70;;;7.10;99.90;;;7.84;100.00;-20895.47;5014066;28;20479;-67
2020/12/14 01:41:19;;;;;;;0.70;0.60;;;7.10;99.90;;;7.84;100.00;-20895.63;5013977;28;20462;-67
2020/12/14 01:43:46;;;;;;;0.70;0.60;;;7.10;99.90;;;7.79;100.00;-20894.25;5014127;28;20418;-67
2020/12/14 01:46:13;;;;;;;0.70;0.60;;;7.10;99.90;;;7.81;100.00;-20894.66;5012901;28;20469;-67
2020/12/14 01:48:42;;;;;;;0.70;0.60;;;7.00;99.90;;;7.63;100.00;-20889.78;5013852;28;20509;-67
2020/12/14 01:51:09;;;;;;;0.70;0.60;;;7.00;99.90;;;7.54;100.00;-20887.44;5013954;28;20848;-67
2020/12/14 01:53:42;;;;;;;0.70;0.70;;;6.90;99.90;;;7.52;100.00;-20886.88;5013784;28;20472;-67
2020/12/14 01:56:09;;;;;;;0.70;0.60;;;6.80;99.90;;;7.45;100.00;-20884.94;5012810;28;20440;-67
2020/12/14 01:58:37;;;;;;;0.70;0.60;;;6.80;99.90;;;7.49;100.00;-20886.19;5013480;28;20410;-67
2020/12/14 02:01:04;;;;;;;0.70;0.60;;;6.90;99.90;;;7.61;100.00;-20889.25;5013896;28;20919;-67
2020/12/14 02:03:31;;;;;;;0.70;0.60;;;6.90;99.90;;;7.63;100.00;-20889.94;5012408;28;20497;-67
2020/12/14 02:05:59;;;;;;;0.70;0.60;;;6.90;99.90;;;7.55;100.00;-20887.72;5013573;28;20442;-67
2020/12/14 02:08:26;;;;;;;0.70;0.60;;;6.90;99.90;;;7.73;100.00;-20892.56;5008404;28;20523;-67
2020/12/14 02:10:53;;;;;;;0.70;0.50;;;6.90;99.90;;;7.72;100.00;-20892.44;4994259;28;20836;-67
2020/12/14 02:13:21;;;;;;;0.70;0.60;;;6.90;99.90;;;7.72;100.00;-20892.44;5009043;28;20449;-67
2020/12/14 02:15:48;;;;;;;0.70;0.60;;;7.00;99.90;;;7.80;100.00;-20894.38;4992697;28;20893;-67
2020/12/14 02:18:14;;;;;;;0.87;0.87;;;7.00;99.90;;;7.78;100.00;-20893.81;4993996;28;21052;-66
2020/12/14 02:20:41;;;;;;;0.70;0.50;;;7.00;99.90;;;7.88;100.00;-20896.59;4994191;28;20441;-67
2020/12/14 02:23:09;;;;;;;0.70;0.60;;;7.10;99.90;;;7.85;100.00;-20895.91;4994288;28;20464;-66
2020/12/14 02:25:37;;;;;;;0.70;0.60;;;7.10;99.90;;;7.90;100.00;-20897.16;4993965;28;20917;-68
2020/12/14 02:28:04;;;;;;;0.70;0.50;;;7.10;99.90;;;7.92;100.00;-20897.84;4993571;28;20464;-67
2020/12/14 02:30:32;;;;;;;0.70;0.60;;;7.10;99.90;;;7.79;100.00;-20894.09;5003650;28;20461;-68
2020/12/14 02:32:59;;;;;;;0.70;0.60;;;7.00;99.90;;;7.74;100.00;-20893.00;4993516;28;20416;-67
2020/12/14 02:35:27;;;;;;;0.70;0.63;;;7.00;99.90;;;7.79;100.00;-20894.09;4999994;28;20438;-67
2020/12/14 02:37:54;;;;;;;0.70;0.50;;;6.90;99.90;;;7.62;100.00;-20889.66;5016405;28;20443;-67
2020/12/14 02:40:21;;;;;;;0.70;0.50;;;6.90;99.90;;;7.59;100.00;-20888.81;5017443;28;20429;-67
2020/12/14 02:42:49;;;;;;;0.60;0.60;;;6.90;99.90;;;7.51;100.00;-20886.59;5016939;28;20455;-67
2020/12/14 02:45:15;;;;;;;0.70;0.60;;;6.80;99.90;;;7.57;100.00;-20888.13;5017340;28;20820;-67
2020/12/14 02:47:42;;;;;;;0.70;0.60;;;6.80;99.90;;;7.53;100.00;-20887.16;5016688;28;20423;-67
2020/12/14 02:50:09;;;;;;;0.70;0.57;;;6.80;99.90;;;7.52;100.00;-20886.88;5017127;28;20512;-67
2020/12/14 02:52:36;;;;;;;0.70;0.60;;;6.90;99.90;;;7.58;100.00;-20888.53;5017228;28;20423;-67
2020/12/14 02:55:03;;;;;;;0.70;0.60;;;6.90;99.90;;;7.47;100.00;-20885.50;5017315;28;20437;-66
2020/12/14 02:57:30;;;;;;;0.70;0.60;;;6.80;99.90;;;7.55;100.00;-20887.72;5016595;28;20469;-69
2020/12/14 03:00:03;;;;;;;0.70;0.70;;;6.80;99.90;;;7.47;100.00;-20885.50;5015164;28;20449;-67
2020/12/14 03:02:30;;;;;;;0.70;0.60;;;6.70;99.90;;;7.48;100.00;-20885.78;5015493;28;20447;-67
2020/12/14 03:04:57;;;;;;;0.70;0.60;;;6.80;99.90;;;7.25;100.00;-20879.53;5013396;28;20492;-66
2020/12/14 03:07:24;;;;;;;0.70;0.60;;;6.70;99.90;;;7.33;100.00;-20881.59;5016684;28;20439;-67
2020/12/14 03:09:52;;;;;;;0.70;0.60;;;6.70;99.90;;;7.35;100.00;-20882.16;5013423;28;20517;-66
2020/12/14 03:12:19;;;;;;;0.70;0.60;;;6.70;99.90;;;7.38;100.00;-20883.00;5016754;28;20903;-66
2020/12/14 03:14:45;;;;;;;0.70;0.60;;;6.70;99.90;;;7.34;100.00;-20881.88;5016665;28;20452;-66
2020/12/14 03:17:13;;;;;;;0.60;0.50;;;6.60;99.90;;;7.24;100.00;-20879.25;5016524;28;20523;-66
2020/12/14 03:19:40;;;;;;;0.70;0.60;;;6.60;99.90;;;7.16;100.00;-20877.16;5016333;28;20450;-67
2020/12/14 03:22:07;;;;;;;1.13;1.03;;;6.50;99.90;;;7.18;100.00;-20877.56;5016671;28;20830;-66
2020/12/14 03:24:34;;;;;;;0.70;0.60;;;6.60;99.90;;;7.17;100.00;-20877.44;5013277;28;20463;-67
2020/12/14 03:27:01;;;;;;;0.70;0.60;;;6.50;99.90;;;7.12;100.00;-20876.06;5016505;28;20980;-67
2020/12/14 03:29:27;;;;;;;0.70;0.60;;;6.60;99.90;;;7.17;100.00;-20877.44;5011842;28;20569;-67
2020/12/14 03:31:55;;;;;;;0.70;0.60;;;6.40;99.90;;;7.16;100.00;-20877.03;4999612;28;20540;-67
2020/12/14 03:34:22;;;;;;;0.70;0.60;;;6.50;99.90;;;7.24;100.00;-20879.25;5005175;28;21013;-67
2020/12/14 03:36:49;;;;;;;0.70;0.60;;;6.60;99.90;;;7.22;100.00;-20878.69;5005378;28;20446;-67
2020/12/14 03:39:16;;;;;;;0.70;0.60;;;6.60;99.90;;;7.29;100.00;-20880.63;5015062;28;20936;-66
2020/12/14 03:41:43;;;;;;;0.70;0.60;;;6.60;99.90;;;7.29;100.00;-20880.50;5014728;28;20460;-67
2020/12/14 03:44:10;;;;;;;0.70;0.60;;;6.60;99.90;;;7.39;100.00;-20883.28;4996553;28;20526;-67
2020/12/14 03:46:37;;;;;;;0.70;0.63;;;6.70;99.90;;;7.43;100.00;-20884.53;4995337;28;20808;-66
2020/12/14 03:49:04;;;;;;;0.70;0.60;;;6.80;99.90;;;7.51;100.00;-20886.59;4996108;28;20482;-67
2020/12/14 03:51:32;;;;;;;0.67;0.60;;;6.70;99.90;;;7.61;100.00;-20889.38;4996137;28;20418;-67
2020/12/14 03:53:59;;;;;;;0.60;0.50;;;6.80;99.90;;;7.54;100.00;-20887.28;4998441;28;20442;-67
2020/12/14 03:56:26;;;;;;;0.70;0.60;;;6.80;99.90;;;7.56;100.00;-20888.00;5015762;28;20434;-67
2020/12/14 03:58:53;;;;;;;0.67;0.60;;;6.80;99.90;;;7.65;100.00;-20890.50;5013047;28;20473;-67
2020/12/14 04:01:21;;;;;;;0.70;0.60;;;6.80;99.90;;;7.63;100.00;-20889.78;5015739;28;20431;-67
2020/12/14 04:03:48;;;;;;;0.70;0.60;;;6.80;99.90;;;7.63;100.00;-20889.78;5016124;28;20453;-66
2020/12/14 04:06:20;;;;;;;0.70;0.60;;;6.90;99.90;;;7.74;100.00;-20892.84;5015556;28;20473;-66
2020/12/14 04:08:48;;;;;;;0.70;0.60;;;7.00;99.90;;;7.72;100.00;-20892.28;5015378;28;20458;-66
2020/12/14 04:11:15;;;;;;;0.70;0.60;;;7.00;99.90;;;7.76;100.00;-20893.41;5015305;28;20437;-67
2020/12/14 04:13:43;;;;;;;0.70;0.70;;;7.00;99.90;;;7.72;100.00;-20892.44;5015328;28;20437;-67
2020/12/14 04:16:11;;;;;;;0.70;0.60;;;7.00;99.90;;;7.74;100.00;-20892.84;5015417;28;20513;-67
2020/12/14 04:18:39;;;;;;;0.70;0.60;;;6.90;99.90;;;7.71;100.00;-20892.00;5015632;28;20506;-67
2020/12/14 04:21:07;;;;;;;0.70;0.60;;;6.90;99.90;;;7.83;100.00;-20895.22;5014932;28;20429;-67
2020/12/14 04:23:35;;;;;;;0.67;0.60;;;6.90;99.90;;;7.81;100.00;-20894.78;5015346;28;20422;-67
2020/12/14 04:26:03;;;;;;;0.70;0.60;;;6.90;99.90;;;7.58;100.00;-20888.41;5015361;28;20445;-66
2020/12/14 04:28:31;;;;;;;0.70;0.60;;;6.80;99.90;;;7.51;100.00;-20886.59;5014948;28;20550;-66
2020/12/14 04:30:59;;;;;;;0.70;0.60;;;6.80;99.90;;;7.48;100.00;-20885.78;5015302;28;20430;-66
2020/12/14 04:33:26;;;;;;;0.70;0.60;;;6.70;99.90;;;7.45;100.00;-20885.06;5014639;28;20446;-67
2020/12/14 04:35:53;;;;;;;0.60;0.60;;;6.70;99.90;;;7.54;100.00;-20887.44;4997538;28;20491;-67
2020/12/14 04:38:20;;;;;;;0.70;0.60;;;6.80;99.90;;;7.67;100.00;-20890.91;4995588;28;20499;-67
2020/12/14 04:40:47;;;;;;;0.70;0.60;;;6.80;99.90;;;7.68;100.00;-20891.19;4995567;28;20523;-67
2020/12/14 04:43:16;;;;;;;0.70;0.60;;;6.90;99.90;;;7.55;100.00;-20887.72;4994951;28;20423;-67
2020/12/14 04:45:45;;;;;;;0.70;0.60;;;6.80;99.90;;;7.54;100.00;-20887.28;4995452;28;20419;-67
2020/12/14 04:48:13;;;;;;;0.70;0.60;;;6.80;99.90;;;7.56;100.00;-20888.00;4995245;28;20463;-67
2020/12/14 04:50:41;;;;;;;0.70;0.60;;;6.80;99.90;;;7.53;100.00;-20887.16;4995959;28;20455;-67
2020/12/14 04:53:08;;;;;;;0.60;0.50;;;6.80;99.90;;;7.45;100.00;-20884.94;5002407;28;20439;-66
2020/12/14 04:55:36;;;;;;;0.70;0.50;;;6.80;99.90;;;7.42;100.00;-20884.09;5014215;28;20511;-67
2020/12/14 04:58:06;;;;;;;0.70;0.50;;;6.80;99.90;;;7.40;100.00;-20883.53;5014233;28;20430;-67
2020/12/14 05:00:37;;;;;;;0.70;0.60;;;6.70;99.90;;;7.48;100.00;-20885.78;5014478;28;20472;-66
2020/12/14 05:03:07;;;;;;;0.70;0.60;;;6.80;99.90;;;7.52;100.00;-20886.88;5011439;28;20463;-66
2020/12/14 05:05:34;;;;;;;0.70;0.60;;;6.80;99.90;;;7.65;100.00;-20890.34;5011130;28;20484;-66
2020/12/14 05:08:01;;;;;;;0.60;0.60;;;6.90;99.90;;;7.71;100.00;-20892.16;4995064;28;20415;-66
2020/12/14 05:10:29;;;;;;;0.70;0.60;;;6.90;99.90;;;7.72;100.00;-20892.44;4999288;28;20510;-67
2020/12/14 05:12:56;;;;;;;0.67;0.60;;;7.00;99.90;;;7.80;100.00;-20894.38;5001569;28;20448;-67
2020/12/14 05:15:26;;;;;;;0.70;0.60;;;7.00;99.90;;;7.90;100.00;-20897.28;5007895;28;20438;-68
2020/12/14 05:18:12;;;;;;;0.70;0.60;;;7.00;99.90;;;7.79;100.00;-20894.25;5009516;28;20507;-67
2020/12/14 05:20:41;;;;;;;0.70;0.60;;;7.10;99.90;;;7.98;100.00;-20899.38;5002405;28;20517;-67
2020/12/14 05:23:11;;;;;;;0.70;0.60;;;7.10;99.90;;;7.94;100.00;-20898.25;4999668;28;20512;-67
2020/12/14 05:25:38;;;;;;;0.70;0.70;;;7.10;99.90;;;8.06;100.00;-20901.44;4994894;28;20422;-66
2020/12/14 05:28:16;;;;;;;0.70;0.63;;;7.20;99.90;;;8.07;100.00;-20901.88;5013059;28;21015;-66
2020/12/14 05:30:45;;;;;;;0.70;0.50;;;7.20;99.90;;;8.04;100.00;-20900.91;5009182;28;20441;-66
2020/12/14 05:33:17;;;;;;;0.70;0.60;;;7.20;99.90;;;8.24;100.00;-20906.59;5004962;28;20468;-67
2020/12/14 05:35:45;;;;;;;0.70;0.70;;;7.30;99.90;;;8.13;100.00;-20903.53;4995213;28;20445;-67
2020/12/14 05:38:23;;;;;;;0.70;0.60;;;7.30;99.90;;;8.26;100.00;-20906.88;4994498;28;20417;-66
2020/12/14 05:40:52;;;;;;;0.70;0.50;;;7.30;99.90;;;8.15;100.00;-20903.94;5008302;28;20529;-67
2020/12/14 05:43:22;;;;;;;0.70;0.70;;;7.30;99.90;;;8.15;100.00;-20904.09;5006411;28;20999;-66
2020/12/14 05:45:51;;;;;;;0.70;0.60;;;7.30;99.90;;;8.07;100.00;-20901.72;5012549;28;20749;-69
2020/12/14 05:48:26;;;;;;;0.70;0.60;;;7.20;99.90;;;8.09;100.00;-20902.28;5012723;28;20522;-67
2020/12/14 05:50:56;;;;;;;0.60;0.50;;;7.30;99.90;;;7.93;100.00;-20898.13;5012539;28;20904;-67
2020/12/14 05:53:35;;;;;;;0.70;0.60;;;7.20;99.90;;;7.97;100.00;-20899.09;5011769;28;20477;-67
2020/12/14 05:56:04;;;;;;;0.70;0.60;;;7.20;99.90;;;7.93;100.00;-20897.97;5012510;28;20884;-68
2020/12/14 05:58:33;;;;;;;0.70;0.60;;;7.20;99.90;;;7.83;100.00;-20895.22;5012398;28;20466;-67
2020/12/14 06:01:02;;;;;;;0.70;0.57;;;7.20;99.90;;;8.04;100.00;-20901.03;5012881;28;20494;-67
2020/12/14 06:03:30;;;;;;;0.70;0.60;;;7.20;99.90;;;7.88;100.00;-20896.59;5012155;28;21019;-67
2020/12/14 06:06:00;;;;;;;0.60;0.57;;;7.10;99.90;;;7.90;100.00;-20897.16;5012494;28;20488;-67
2020/12/14 06:09:05;;;;;;;0.70;0.60;;;7.10;99.90;;;7.97;100.00;-20884.75;5013672;28;20457;-66
2020/12/14 06:11:37;;;;;;;0.70;0.60;;;7.30;99.90;;;8.02;100.00;-20900.47;5013681;28;20421;-66
2020/12/14 06:14:05;;;;;;;0.60;0.60;;;7.30;99.90;;;8.08;100.00;-20825.31;5013468;28;20425;-67
2020/12/14 06:16:39;;;;;;;0.60;0.60;;;7.30;99.90;;;8.03;100.00;-20789.00;5013532;28;20840;-67
2020/12/14 06:19:07;;;;;;;0.60;0.57;;;7.30;99.90;;;8.02;100.00;-20756.31;5012275;28;20452;-67
2020/12/14 06:21:43;;;;;;;0.60;0.60;;;7.30;99.90;;;8.04;100.00;-20609.81;5013520;28;20465;-66
2020/12/14 06:24:20;;;;;;;0.60;0.50;;;7.30;99.90;;;8.13;100.00;-20509.84;5012476;28;20422;-67
2020/12/14 06:26:47;;;;;;;0.63;0.60;;;7.30;99.90;;;8.17;100.00;-20543.50;5013603;28;20421;-66
2020/12/14 06:29:32;;;;;;;0.60;0.60;;;7.30;99.90;;;8.22;100.00;-20544.88;5011039;28;20573;-66
2020/12/14 06:31:59;;;;;;;0.60;0.50;;;7.40;99.90;;;8.12;100.00;-20616.88;5000606;28;20434;-66
2020/12/14 06:34:41;;;;;;;0.70;0.60;;;7.40;99.90;;;8.28;100.00;-20718.41;4993948;28;20464;-67
2020/12/14 06:37:08;;;;;;;0.60;0.50;;;7.40;99.90;;;8.16;100.00;-20687.94;4994106;28;20804;-67
2020/12/14 06:39:42;;;;;;;0.67;0.60;;;7.50;99.90;;;8.24;100.00;-20707.59;5012152;28;20527;-66
2020/12/14 06:42:24;;;;;;;0.70;0.70;;;7.40;99.90;;;8.31;100.00;-20841.50;5009163;28;20456;-69
2020/12/14 06:45:12;;;;;;;0.60;0.60;;;7.50;99.90;;;8.21;100.00;-20764.03;4993726;28;21017;-67
2020/12/14 06:47:58;;;;;;;0.67;0.60;;;7.50;99.90;;;8.33;100.00;-20697.31;4993848;28;20422;-67
2020/12/14 06:50:32;;;;;;;0.60;0.50;;;7.50;99.90;;;8.40;100.00;-20868.94;4993436;28;20608;-66
2020/12/14 06:53:01;;;;;;;0.70;0.60;;;7.60;99.90;;;8.56;100.00;-20783.50;4993808;28;20474;-67
2020/12/14 06:55:45;;;;;;;0.70;0.60;;;7.60;99.90;;;8.46;100.00;-20900.56;4993835;28;20509;-66
2020/12/14 06:58:36;;;;;;;0.70;0.60;;;7.60;99.90;;;8.43;100.00;-20911.72;4993761;28;20424;-66
2020/12/14 07:01:24;;;;;;;0.60;0.50;;;7.60;99.90;;;8.47;100.00;-20843.44;4993542;28;20437;-66
2020/12/14 07:03:52;;;;;;;1.47;1.33;;;7.60;99.90;;;8.41;100.00;-20911.03;4993676;28;20473;-67
2020/12/14 07:06:26;;;;;;;0.70;0.60;;;7.60;99.90;;;8.35;100.00;-20900.00;4993259;28;20535;-66
2020/12/14 07:09:27;;;;;;;0.70;0.60;;;7.50;99.90;;;8.22;100.00;-20849.28;4993452;28;20461;-67
2020/12/14 07:11:55;;;;;;;0.63;0.60;;;7.50;99.90;;;8.18;100.00;-20700.84;4993875;28;20507;-67
2020/12/14 07:14:29;;;;;;;0.70;0.60;;;7.40;99.90;;;8.27;100.00;-20561.06;4993452;28;20465;-66
2020/12/14 07:16:59;;;;;;;0.70;0.60;;;7.40;99.90;;;8.30;100.00;-20519.47;4995882;28;20495;-67
2020/12/14 07:19:34;;;;;;;0.67;0.60;;;7.50;99.90;;;8.47;100.00;-20711.16;4993535;28;21007;-67
2020/12/14 07:22:02;;;;;;;0.60;0.50;;;7.60;99.90;;;8.57;100.00;-20753.81;4998734;28;20411;-67
2020/12/14 07:24:34;;;;;;;0.60;0.60;;;7.70;99.90;;;8.54;100.00;-20840.38;5016626;28;20547;-67
2020/12/14 07:27:02;;;;;;;0.60;0.60;;;7.70;99.90;;;8.58;100.00;-20629.28;5016258;28;20919;-67
2020/12/14 07:29:29;;;;;;;0.70;0.60;;;7.70;99.90;;;8.55;100.00;-20458.56;5008996;28;20794;-67
2020/12/14 07:32:02;;;;;;;0.70;0.70;;;7.60;99.90;;;8.58;100.00;-20399.59;4996890;28;20828;-67
2020/12/14 07:34:29;;;;;;;0.70;0.60;;;7.70;99.90;;;8.65;100.00;-20586.09;4996608;28;20452;-67
2020/12/14 07:36:56;;;;;;;0.70;0.70;;;7.70;99.90;;;8.75;100.00;-20633.78;4995207;28;20429;-66
2020/12/14 07:39:24;;;;;;;0.60;0.50;;;7.70;99.90;;;8.64;100.00;-20805.69;4996711;28;20413;-68
2020/12/14 07:41:51;;;;;;;0.70;0.50;;;7.70;99.90;;;8.60;100.00;-20916.16;4996788;28;20922;-67
2020/12/14 07:44:25;;;;;;;0.70;0.50;;;7.80;99.90;;;8.71;100.00;-20919.22;4995494;28;20434;-67
2020/12/14 07:46:53;;;;;;;0.70;0.60;;;7.80;99.90;;;8.81;100.00;-20921.84;4996230;28;20972;-67
2020/12/14 07:49:23;;;;;;;0.70;0.60;;;7.80;99.90;;;8.90;100.00;-20924.47;4996195;28;20479;-67
2020/12/14 07:51:50;;;;;;;0.70;0.60;;;7.80;99.90;;;8.88;100.00;-20923.78;4996290;28;20516;-67
2020/12/14 07:54:19;;;;;;;0.60;0.60;;;7.90;99.90;;;8.94;100.00;-20925.44;4996647;28;20421;-67
2020/12/14 07:56:58;;;;;;;0.70;0.60;;;7.90;99.90;;;8.83;100.00;-20922.41;4996742;28;20839;-68
2020/12/14 07:59:27;;;;;;;0.70;0.70;;;7.90;99.90;;;8.82;100.00;-20922.13;5002313;28;20499;-67
2020/12/14 08:01:56;;;;;;;0.70;0.70;;;7.90;99.90;;;8.55;100.00;-20860.47;5015755;28;20479;-67
2020/12/14 08:04:26;;;;;;;0.70;0.60;;;7.80;99.90;;;8.50;100.00;-20197.56;5015590;28;20507;-66
2020/12/14 08:06:55;;;;;;;0.70;0.60;;;7.70;99.90;;;8.42;100.00;-19341.75;5015240;28;20804;-68
2020/12/14 08:09:32;;;;;;;0.70;0.60;;;7.70;99.90;;;8.27;100.00;-18244.41;5012736;28;20460;-66
2020/12/14 08:12:02;;;;;;;0.70;0.60;;;7.50;99.90;;;8.23;100.00;-16989.84;5014554;28;20918;-66
2020/12/14 08:14:31;;;;;;;0.70;0.60;;;7.50;99.90;;;8.28;100.00;-15614.03;5015722;28;20421;-65
2020/12/14 08:16:59;;;;;;;1.10;1.00;;;7.40;99.90;;;8.39;100.00;-14316.06;5016027;28;20957;-65
2020/12/14 08:19:26;;;;;;;0.70;0.60;;;7.40;99.90;;;8.35;100.00;-13265.00;5015311;28;20448;-65
2020/12/14 08:22:02;;;;;;;0.60;0.50;;;7.50;99.90;;;8.21;100.00;-11359.38;5008846;28;20440;-65
2020/12/14 08:24:29;;;;;;;0.60;0.60;;;7.50;99.90;;;8.38;100.00;-9583.81;5011074;28;20466;-65
2020/12/14 08:27:04;;;;;;;0.60;0.50;;;7.50;99.90;;;8.31;100.00;-7885.03;5015854;28;20428;-64
2020/12/14 08:29:33;;;;;;;0.60;0.50;;;7.50;99.90;;;8.40;100.00;-5730.03;5026962;28;20893;-65
2020/12/14 08:32:01;;;;;;;0.60;0.50;;;7.50;99.90;;;8.37;100.00;-5072.97;4995053;28;20524;-65
2020/12/14 08:34:35;;;;;;;0.60;0.60;;;7.50;99.90;;;8.51;100.00;-4283.03;4995660;28;20458;-66
2020/12/14 08:37:04;;;;;;;0.60;0.50;;;7.60;99.90;;;8.60;100.00;-3818.81;4994152;28;20418;-65
2020/12/14 08:39:32;;;;;;;0.70;0.60;;;7.70;99.90;;;8.61;100.00;-4368.38;4995785;28;20412;-65
2020/12/14 08:42:12;;;;;;;0.70;0.60;;;7.70;99.90;;;8.46;100.00;-4335.69;4995362;28;20420;-65
2020/12/14 08:44:41;;;;;;;0.60;0.60;;;7.70;99.90;;;8.48;100.00;-3429.94;4995465;28;20430;-65
2020/12/14 08:47:13;;;;;;;0.60;0.60;;;7.70;99.90;;;8.24;100.00;-3823.94;5013641;28;20534;-65
2020/12/14 08:49:41;;;;;;;0.73;0.73;;;7.70;99.90;;;8.43;100.00;-1770.97;5014801;28;20990;-65
2020/12/14 08:52:08;;;;;;;0.60;0.60;;;7.70;99.90;;;8.59;100.00;-1484.09;5014884;28;20436;-65
2020/12/14 08:54:36;;;;;;;0.60;0.60;;;7.70;99.90;;;8.62;100.00;-2242.34;5015388;28;20417;-65
2020/12/14 08:57:03;;;;;;;0.70;0.67;;;7.80;99.90;;;8.51;100.00;-2676.94;5029772;28;20441;-65
2020/12/14 08:59:32;;;;;;;0.93;0.93;;;7.80;99.90;;;8.54;100.00;-2694.47;5014511;28;20751;-65
2020/12/14 09:02:04;;;;;;;0.60;0.50;;;7.80;99.90;;;8.54;100.00;-2872.69;5014878;28;20438;-65
2020/12/14 09:04:36;;;;;;;0.60;0.50;;;7.80;99.90;;;8.48;100.00;-3274.34;5014290;28;20461;-66
2020/12/14 09:07:07;;;;;;;0.60;0.60;;;7.80;99.90;;;8.52;100.00;-3434.91;5014197;28;20465;-66
2020/12/14 09:09:37;;;;;;;0.70;0.60;;;7.80;99.90;;;8.60;100.00;-4044.69;5014542;28;20546;-66
2020/12/14 09:12:13;;;;;;;0.60;0.50;;;7.80;99.90;;;8.43;100.00;-5226.06;5014452;28;20433;-66
2020/12/14 09:14:43;;;;;;;0.60;0.60;;;7.80;99.90;;;8.44;100.00;-5557.09;5013853;28;20431;-65
2020/12/14 09:17:14;;;;;;;0.60;0.50;;;7.80;99.90;;;8.49;100.00;-5797.97;5010104;28;20426;-66
2020/12/14 09:19:49;;;;;;;0.60;0.60;;;7.80;99.90;;;8.57;100.00;-6515.41;4998137;28;20972;-65
2020/12/14 09:22:21;;;;;;;0.60;0.50;;;7.80;99.90;;;8.52;100.00;-7490.34;5001673;28;20452;-65
2020/12/14 09:24:49;;;;;;;0.60;0.60;;;7.80;99.90;;;8.46;100.00;-7680.47;4995384;28;20449;-65
2020/12/14 09:27:18;;;;;;;0.60;0.50;;;7.70;99.90;;;8.47;100.00;-7938.63;4995600;28;20432;-66
2020/12/14 09:29:47;;;;;;;0.60;0.50;;;7.70;99.90;;;8.46;100.00;-8191.66;5013770;28;20527;-65
2020/12/14 09:32:16;;;;;;;0.60;0.60;;;7.70;99.90;;;8.47;100.00;-8467.34;5012758;28;20428;-66
2020/12/14 09:34:44;;;;;;;0.60;0.50;;;7.70;99.90;;;8.46;100.00;-9098.56;5014385;28;20539;-65
2020/12/14 09:37:12;;;;;;;0.60;0.60;;;7.70;99.90;;;8.52;100.00;-9863.09;5013987;28;20466;-65
2020/12/14 09:39:42;;;;;;;0.70;0.60;;;7.80;99.90;;;8.56;100.00;-10331.81;5014235;28;20462;-65
2020/12/14 09:42:09;;;;;;;0.60;0.50;;;7.80;99.90;;;8.65;100.00;-10956.34;5015178;28;20418;-65
2020/12/14 09:44:39;;;;;;;0.60;0.60;;;7.90;99.90;;;8.67;100.00;-11835.56;5014056;28;20817;-66
2020/12/14 09:47:09;;;;;;;0.60;0.60;;;7.90;99.90;;;8.66;100.00;-12215.97;5012634;28;20441;-64
2020/12/14 09:49:39;;;;;;;0.70;0.60;;;8.00;99.90;;;8.65;100.00;-12771.53;5012663;28;20985;-64
2020/12/14 09:52:07;;;;;;;0.70;0.60;;;8.00;99.90;;;8.86;100.00;-13032.28;5014319;28;20435;-66
2020/12/14 09:54:35;;;;;;;0.70;0.60;;;8.10;99.90;;;8.94;100.00;-13767.00;5014093;28;20428;-66
2020/12/14 09:57:07;;;;;;;0.60;0.60;;;8.20;99.90;;;9.08;100.00;-14107.25;5014891;28;21070;-66
2020/12/14 09:59:34;;;;;;;0.70;0.60;;;8.30;99.90;;;9.07;100.00;-14570.22;5014010;28;20818;-66
2020/12/14 10:02:02;;;;;;;0.70;0.60;;;8.30;99.90;;;9.11;100.00;-14923.88;5014558;28;20475;-65
2020/12/14 10:04:30;;;;;;;0.70;0.67;;;8.30;99.90;;;9.21;100.00;-15403.59;5013827;28;20479;-65
2020/12/14 10:06:58;;;;;;;0.70;0.60;;;8.40;99.90;;;9.13;100.00;-16328.22;5013449;28;20456;-65
2020/12/14 10:09:28;;;;;;;0.60;0.50;;;8.40;99.90;;;9.28;100.00;-16824.03;5013591;28;20478;-65
2020/12/14 10:11:58;;;;;;;0.60;0.60;;;8.50;99.90;;;9.42;100.00;-17565.34;5013358;28;20424;-67
2020/12/14 10:14:26;;;;;;;0.70;0.60;;;8.50;99.90;;;9.55;100.00;-18233.81;5011792;28;20430;-66
2020/12/14 10:16:53;;;;;;;0.70;0.60;;;8.60;99.90;;;9.49;100.00;-18857.88;5015057;28;20949;-66
2020/12/14 10:19:21;;;;;;;0.70;0.60;;;8.70;99.90;;;9.42;100.00;-19806.53;5015155;28;20480;-65
2020/12/14 10:21:50;;;;;;;0.70;0.60;;;8.80;99.90;;;9.51;100.00;-20331.50;5014798;28;20422;-66
2020/12/14 10:24:18;;;;;;;0.70;0.60;;;8.80;99.90;;;9.75;100.00;-20900.56;5014666;28;20835;-67
2020/12/14 10:26:49;;;;;;;0.70;0.60;;;8.80;99.90;;;9.97;100.00;-20953.44;5015094;28;20455;-66
2020/12/14 10:29:21;;;;;;;0.70;0.60;;;8.90;99.90;;;10.14;100.00;-20958.00;5010777;28;20807;-66